CheckWX is a tool to help pilots better visualize weather data.  It is not intended as a substitute for an official pre-flight weather briefing.

05:31:31 UTC

KGZN METAR
Gregory M Simmons Memorial Airport
Cisco, Texas, USA
Current

32 mins ago

KGZN 240500Z AUTO 33003KT 10SM CLR 05/M02 A3020 RMK AO2
Observed
Feb-24 @ 05:00 UTC
Wind
  • 330° at 3 KTS
Visibility
10 SM
Flight Rules
VFR
Cloud Levels
  • Clear skies
Temperature
C / 41°F
Dewpoint
-2°C / 28°F
Humidity
61%
Altimeter
30.2" Hg
Pressure
1022.72 hPa
Previous

52 mins ago

KGZN 240440Z AUTO 33004KT 10SM CLR 06/M02 A3019 RMK AO2
Observed
Feb-24 @ 04:40 UTC
Wind
  • 330° at 4 KTS
Visibility
10 SM
Flight Rules
VFR
Cloud Levels
  • Clear skies
Temperature
C / 43°F
Dewpoint
-2°C / 28°F
Humidity
57%
Altimeter
30.19" Hg
Pressure
1022.32 hPa
Previous

1 hour ago

KGZN 240420Z AUTO 34004KT 10SM CLR 07/M02 A3018 RMK AO2
Observed
Feb-24 @ 04:20 UTC
Wind
  • 340° at 4 KTS
Visibility
10 SM
Flight Rules
VFR
Cloud Levels
  • Clear skies
Temperature
C / 45°F
Dewpoint
-2°C / 28°F
Humidity
53%
Altimeter
30.18" Hg
Pressure
1022.02 hPa